createdAt,value
2023-01-22T00:01:23.003Z,1.30
2023-01-22T00:03:53.227Z,1.30
2023-01-22T00:06:23.537Z,1.30
2023-01-22T00:08:52.095Z,1.30
2023-01-22T00:11:22.883Z,1.30
2023-01-22T00:13:51.068Z,1.30
2023-01-22T00:16:20.301Z,1.20
2023-01-22T00:18:48.863Z,1.30
2023-01-22T00:21:17.059Z,1.20
2023-01-22T00:23:45.367Z,1.20
2023-01-22T00:26:17.272Z,1.20
2023-01-22T00:28:46.900Z,1.30
2023-01-22T00:31:17.420Z,1.30
2023-01-22T00:33:46.834Z,1.20
2023-01-22T00:36:18.426Z,1.20
2023-01-22T00:38:47.119Z,1.20
2023-01-22T00:41:16.724Z,1.20
2023-01-22T00:43:46.769Z,1.30
2023-01-22T00:46:18.133Z,1.30
2023-01-22T00:48:49.307Z,1.30
2023-01-22T00:51:17.926Z,1.40
2023-01-22T00:53:46.276Z,1.40
2023-01-22T00:56:16.796Z,1.30
2023-01-22T00:58:46.594Z,1.40
2023-01-22T01:01:16.079Z,1.50
2023-01-22T01:03:44.190Z,1.50
2023-01-22T01:06:17.189Z,1.40
2023-01-22T01:08:45.595Z,1.50
2023-01-22T01:11:18.550Z,1.40
2023-01-22T01:13:48.133Z,1.40
2023-01-22T01:16:19.279Z,1.40
2023-01-22T01:18:48.945Z,1.30
2023-01-22T01:21:19.129Z,1.20
2023-01-22T01:23:47.981Z,1.40
2023-01-22T01:26:18.396Z,1.30
2023-01-22T01:28:47.937Z,1.40
2023-01-22T01:31:18.204Z,1.40
2023-01-22T01:33:47.984Z,1.30
2023-01-22T01:36:30.682Z,1.40
2023-01-22T01:39:04.775Z,1.40
2023-01-22T01:41:32.909Z,1.30
2023-01-22T01:44:16.641Z,1.20
2023-01-22T01:46:50.801Z,1.20
2023-01-22T01:49:28.476Z,1.30
2023-01-22T01:52:01.978Z,1.20
2023-01-22T01:54:31.807Z,1.20
2023-01-22T01:57:09.624Z,1.20
2023-01-22T01:59:40.365Z,1.20
2023-01-22T02:02:08.784Z,1.40
2023-01-22T02:04:37.082Z,1.30
2023-01-22T02:07:07.046Z,1.30
2023-01-22T02:09:35.291Z,1.20
2023-01-22T02:12:04.866Z,1.30
2023-01-22T02:14:36.098Z,1.20
2023-01-22T02:17:11.442Z,1.30
2023-01-22T02:19:40.285Z,1.30
2023-01-22T02:22:14.838Z,1.30
2023-01-22T02:24:43.053Z,1.30
2023-01-22T02:27:11.366Z,1.40
2023-01-22T02:29:39.854Z,1.20
2023-01-22T02:32:08.641Z,1.30
2023-01-22T02:34:36.961Z,1.40
2023-01-22T02:37:05.788Z,1.30
2023-01-22T02:39:35.580Z,1.40
2023-01-22T02:42:05.235Z,1.40
2023-01-22T02:44:33.617Z,1.40
2023-01-22T02:47:02.280Z,1.30
2023-01-22T02:49:30.482Z,1.40
2023-01-22T02:51:58.765Z,1.40
2023-01-22T02:54:27.217Z,1.40
2023-01-22T02:56:57.110Z,1.40
2023-01-22T02:59:25.478Z,1.40
2023-01-22T03:01:53.713Z,1.40
2023-01-22T03:04:21.981Z,1.30
2023-01-22T03:06:50.239Z,1.30
2023-01-22T03:09:19.506Z,1.40
2023-01-22T03:11:48.678Z,1.30
2023-01-22T03:14:35.484Z,1.30
2023-01-22T03:17:21.863Z,1.40
2023-01-22T03:20:07.352Z,1.40
2023-01-22T03:22:35.512Z,1.50
2023-01-22T03:25:03.745Z,1.40
2023-01-22T03:27:33.356Z,1.40
2023-01-22T03:30:02.906Z,1.30
2023-01-22T03:32:31.775Z,1.30
2023-01-22T03:34:59.934Z,1.50
2023-01-22T03:37:28.141Z,1.40
2023-01-22T03:39:57.304Z,1.30
2023-01-22T03:42:26.404Z,1.40
2023-01-22T03:44:54.638Z,1.40
2023-01-22T03:47:24.185Z,1.30
2023-01-22T03:49:52.321Z,1.30
2023-01-22T03:52:20.456Z,1.30
2023-01-22T03:54:48.641Z,1.40
2023-01-22T03:57:16.929Z,1.30
2023-01-22T03:59:45.117Z,1.30
2023-01-22T04:02:13.327Z,1.30
2023-01-22T04:04:47.962Z,1.20
2023-01-22T04:07:16.160Z,1.10
2023-01-22T04:09:44.301Z,1.20
2023-01-22T04:12:12.461Z,1.30
2023-01-22T04:14:40.581Z,1.30
2023-01-22T04:17:08.739Z,1.40
2023-01-22T04:19:36.842Z,1.30
2023-01-22T04:22:12.842Z,1.40
2023-01-22T04:24:48.495Z,1.40
2023-01-22T04:27:16.611Z,1.20
2023-01-22T04:29:44.871Z,1.30
2023-01-22T04:32:13.041Z,1.30
2023-01-22T04:34:41.247Z,1.30
2023-01-22T04:37:10.751Z,1.30
2023-01-22T04:39:38.943Z,1.30
2023-01-22T04:42:07.219Z,1.40
2023-01-22T04:44:35.402Z,1.40
2023-01-22T04:47:03.536Z,1.30
2023-01-22T04:49:31.735Z,1.30
2023-01-22T04:51:59.914Z,1.30
2023-01-22T04:54:29.492Z,1.40
2023-01-22T04:56:57.619Z,1.40
2023-01-22T04:59:25.885Z,1.30
2023-01-22T05:01:54.178Z,1.40
2023-01-22T05:04:23.732Z,1.30
2023-01-22T05:06:52.159Z,1.20
2023-01-22T05:09:21.108Z,1.40
2023-01-22T05:11:50.593Z,1.40
2023-01-22T05:14:18.770Z,1.30
2023-01-22T05:16:47.360Z,1.20
2023-01-22T05:19:15.721Z,1.30
2023-01-22T05:21:43.886Z,1.20
2023-01-22T05:24:12.336Z,1.30
2023-01-22T05:26:40.560Z,1.30
2023-01-22T05:29:10.110Z,1.30
2023-01-22T05:31:38.351Z,1.30
2023-01-22T05:34:06.620Z,1.20
2023-01-22T05:36:34.794Z,1.20
2023-01-22T05:39:03.046Z,1.30
2023-01-22T05:41:31.197Z,1.20
2023-01-22T05:43:59.345Z,1.20
2023-01-22T05:46:28.909Z,1.20
2023-01-22T05:48:57.711Z,1.10
2023-01-22T05:51:26.866Z,1.20
2023-01-22T05:53:55.045Z,1.10
2023-01-22T05:56:23.676Z,1.20
2023-01-22T05:58:52.149Z,1.10
2023-01-22T06:01:20.528Z,1.00
2023-01-22T06:03:50.165Z,1.00
2023-01-22T06:06:18.633Z,1.00
2023-01-22T06:08:48.269Z,0.90
2023-01-22T06:11:18.603Z,1.00
2023-01-22T06:13:47.299Z,1.00
2023-01-22T06:16:15.763Z,1.00
2023-01-22T06:18:44.117Z,1.00
2023-01-22T06:21:13.703Z,1.00
2023-01-22T06:23:41.978Z,1.00
2023-01-22T06:26:10.387Z,1.00
2023-01-22T06:28:38.558Z,1.00
2023-01-22T06:31:07.737Z,1.00
2023-01-22T06:33:37.936Z,1.20
2023-01-22T06:36:07.488Z,1.10
2023-01-22T06:38:38.221Z,1.10
2023-01-22T06:41:06.460Z,1.10
2023-01-22T06:43:34.663Z,1.10
2023-01-22T06:46:05.669Z,1.10
2023-01-22T06:48:33.888Z,1.10
2023-01-22T06:51:02.300Z,1.10
2023-01-22T06:53:30.512Z,1.10
2023-01-22T06:56:01.982Z,1.10
2023-01-22T06:58:30.928Z,1.20
2023-01-22T07:01:02.358Z,1.30
2023-01-22T07:03:30.972Z,1.30
2023-01-22T07:06:00.709Z,1.20
2023-01-22T07:08:30.850Z,1.10
2023-01-22T07:10:59.792Z,1.10
2023-01-22T07:13:29.545Z,1.20
2023-01-22T07:16:03.136Z,1.30
2023-01-22T07:18:32.147Z,1.30
2023-01-22T07:21:02.209Z,1.20
2023-01-22T07:23:31.375Z,1.30
2023-01-22T07:26:00.005Z,1.40
2023-01-22T07:28:29.892Z,1.40
2023-01-22T07:30:58.251Z,1.40
2023-01-22T07:33:26.574Z,1.40
2023-01-22T07:35:56.561Z,1.40
2023-01-22T07:38:29.352Z,1.50
2023-01-22T07:41:03.368Z,1.30
2023-01-22T07:43:34.492Z,1.50
2023-01-22T07:46:03.636Z,1.50
2023-01-22T07:48:32.880Z,1.50
2023-01-22T07:51:01.953Z,1.40
2023-01-22T07:53:30.958Z,1.40
2023-01-22T07:55:59.171Z,1.50
2023-01-22T07:58:27.564Z,1.40
2023-01-22T08:00:57.125Z,1.40
2023-01-22T08:03:25.455Z,1.50
2023-01-22T08:05:53.681Z,1.50
2023-01-22T08:08:22.105Z,0.90
2023-01-22T08:10:50.337Z,1.30
2023-01-22T08:13:18.659Z,1.50
2023-01-22T08:15:46.882Z,1.40
2023-01-22T08:18:18.756Z,1.50
2023-01-22T08:20:47.516Z,1.60
2023-01-22T08:23:15.768Z,1.50
2023-01-22T08:25:44.103Z,1.40
2023-01-22T08:28:12.525Z,1.40
2023-01-22T08:30:46.498Z,1.50
2023-01-22T08:33:16.648Z,1.50
2023-01-22T08:35:45.846Z,1.60
2023-01-22T08:38:14.815Z,1.60
2023-01-22T08:40:42.917Z,1.50
2023-01-22T08:43:11.202Z,1.50
2023-01-22T08:45:39.919Z,1.40
2023-01-22T08:48:08.236Z,1.50
2023-01-22T08:50:37.814Z,1.40
2023-01-22T08:53:06.577Z,1.40
2023-01-22T08:55:34.855Z,1.50
2023-01-22T08:58:03.032Z,1.50
2023-01-22T09:00:31.344Z,1.50
2023-01-22T09:03:03.317Z,1.50
2023-01-22T09:05:31.734Z,1.40
2023-01-22T09:08:01.517Z,1.50
2023-01-22T09:10:30.174Z,1.50
2023-01-22T09:13:00.571Z,1.50
2023-01-22T09:15:29.234Z,1.50
2023-01-22T09:17:57.683Z,1.50
2023-01-22T09:20:25.877Z,1.60
2023-01-22T09:22:54.068Z,1.60
2023-01-22T09:25:23.907Z,1.50
2023-01-22T09:27:57.518Z,1.60
2023-01-22T09:30:26.332Z,1.60
2023-01-22T09:32:54.636Z,1.80
2023-01-22T09:35:23.018Z,1.60
2023-01-22T09:37:51.290Z,1.60
2023-01-22T09:40:29.190Z,1.70
2023-01-22T09:43:05.859Z,1.80
2023-01-22T09:45:40.002Z,1.70
2023-01-22T09:48:17.848Z,1.70
2023-01-22T09:50:47.909Z,1.80
2023-01-22T09:53:22.175Z,1.80
2023-01-22T09:55:57.512Z,1.70
2023-01-22T09:58:27.523Z,1.80
2023-01-22T10:01:00.876Z,1.80
2023-01-22T10:03:37.064Z,1.70
2023-01-22T10:06:13.680Z,1.70
2023-01-22T10:09:02.893Z,1.60
2023-01-22T10:11:32.495Z,1.70
2023-01-22T10:14:06.985Z,1.70
2023-01-22T10:16:35.516Z,1.80
2023-01-22T10:19:18.206Z,1.80
2023-01-22T10:21:50.880Z,1.80
2023-01-22T10:24:19.052Z,1.70
2023-01-22T10:26:54.188Z,1.70
2023-01-22T10:29:31.689Z,1.80
2023-01-22T10:32:02.823Z,1.70
2023-01-22T10:34:34.920Z,1.70
2023-01-22T10:37:11.918Z,1.90
2023-01-22T10:39:41.550Z,1.90
2023-01-22T10:42:18.779Z,1.90
2023-01-22T10:44:48.453Z,1.90
2023-01-22T10:47:21.451Z,1.90
2023-01-22T10:50:03.421Z,1.80
2023-01-22T10:52:39.864Z,1.90
2023-01-22T10:55:20.204Z,1.90
2023-01-22T10:57:56.402Z,2.00
2023-01-22T11:00:50.229Z,2.10
2023-01-22T11:03:24.350Z,2.10
2023-01-22T11:05:58.777Z,2.10
2023-01-22T11:08:31.431Z,2.00
2023-01-22T11:11:04.643Z,2.10
2023-01-22T11:13:47.253Z,2.00
2023-01-22T11:16:19.241Z,2.00
2023-01-22T11:18:57.156Z,2.10
2023-01-22T11:21:31.096Z,2.10
2023-01-22T11:24:05.951Z,2.10
2023-01-22T11:27:19.344Z,2.00
2023-01-22T11:30:09.172Z,2.20
2023-01-22T11:33:03.070Z,2.00
2023-01-22T11:35:41.710Z,2.00
2023-01-22T11:38:20.188Z,1.90
2023-01-22T11:41:18.775Z,2.10
2023-01-22T11:44:22.370Z,2.10
2023-01-22T11:47:14.163Z,2.10
2023-01-22T11:50:03.777Z,1.90
2023-01-22T11:52:47.556Z,2.00
2023-01-22T11:55:39.612Z,2.00
2023-01-22T11:58:22.682Z,1.80
2023-01-22T12:01:05.096Z,2.00
2023-01-22T12:04:17.061Z,2.00
2023-01-22T12:07:18.194Z,2.00
2023-01-22T12:10:05.122Z,1.90
2023-01-22T12:12:47.993Z,2.00
2023-01-22T12:15:37.241Z,2.00
2023-01-22T12:18:57.716Z,1.90
2023-01-22T12:21:45.099Z,1.80
2023-01-22T12:24:24.063Z,2.00
2023-01-22T12:27:01.891Z,2.00
2023-01-22T12:29:36.656Z,1.90
2023-01-22T12:32:10.909Z,1.80
2023-01-22T12:34:48.035Z,1.80
2023-01-22T12:37:24.409Z,1.80
2023-01-22T12:40:23.742Z,2.00
2023-01-22T12:43:02.156Z,2.00
2023-01-22T12:45:44.338Z,1.90
2023-01-22T12:48:26.732Z,1.80
2023-01-22T12:50:57.762Z,2.00
2023-01-22T12:53:31.095Z,2.20
2023-01-22T12:56:04.335Z,1.80
2023-01-22T12:58:36.967Z,1.80
2023-01-22T13:01:23.274Z,1.90
2023-01-22T13:04:00.964Z,2.00
2023-01-22T13:06:35.947Z,2.20
2023-01-22T13:09:22.842Z,2.10
2023-01-22T13:11:51.548Z,2.20
2023-01-22T13:14:24.844Z,1.90
2023-01-22T13:16:57.291Z,1.90
2023-01-22T13:19:29.474Z,1.90
2023-01-22T13:22:01.559Z,1.90
2023-01-22T13:24:31.415Z,1.90
2023-01-22T13:27:03.411Z,2.00
2023-01-22T13:29:34.126Z,1.90
2023-01-22T13:32:05.784Z,1.80
2023-01-22T13:34:34.145Z,1.90
2023-01-22T13:37:02.292Z,1.80
2023-01-22T13:39:34.853Z,1.70
2023-01-22T13:42:06.455Z,2.00
2023-01-22T13:44:39.503Z,1.90
2023-01-22T13:47:08.268Z,1.70
2023-01-22T13:49:43.665Z,1.90
2023-01-22T13:52:19.688Z,1.90
2023-01-22T13:54:58.687Z,1.80
2023-01-22T13:57:28.023Z,1.90
2023-01-22T13:59:58.483Z,1.90
2023-01-22T14:02:31.466Z,1.90
2023-01-22T14:05:00.189Z,1.90
2023-01-22T14:07:31.221Z,1.80
2023-01-22T14:10:15.689Z,1.90
2023-01-22T14:12:44.109Z,1.90
2023-01-22T14:15:21.520Z,1.80
2023-01-22T14:17:50.624Z,1.80
2023-01-22T14:20:19.673Z,1.90
2023-01-22T14:22:49.406Z,1.90
2023-01-22T14:25:18.961Z,1.80
2023-01-22T14:27:49.672Z,1.80
2023-01-22T14:30:21.570Z,1.80
2023-01-22T14:32:50.274Z,1.80
2023-01-22T14:35:21.519Z,1.80
2023-01-22T14:37:51.161Z,1.70
2023-01-22T14:40:23.068Z,1.80
2023-01-22T14:42:52.004Z,1.70
2023-01-22T14:45:22.055Z,1.70
2023-01-22T14:47:52.701Z,1.70
2023-01-22T14:50:21.979Z,1.70
2023-01-22T14:52:51.747Z,1.70
2023-01-22T14:55:22.015Z,1.70
2023-01-22T14:57:50.657Z,1.70
2023-01-22T15:00:21.005Z,1.70
2023-01-22T15:02:49.549Z,1.70
2023-01-22T15:05:19.023Z,1.70
2023-01-22T15:07:47.255Z,1.60
2023-01-22T15:10:15.915Z,1.70
2023-01-22T15:12:49.230Z,1.60
2023-01-22T15:15:18.682Z,1.60
2023-01-22T15:17:46.917Z,1.60
2023-01-22T15:20:15.242Z,1.60
2023-01-22T15:22:43.431Z,1.70
2023-01-22T15:25:11.817Z,1.60
2023-01-22T15:27:40.215Z,1.70
2023-01-22T15:30:12.119Z,1.60
2023-01-22T15:32:40.807Z,1.60
2023-01-22T15:35:10.541Z,1.50
2023-01-22T15:37:38.885Z,1.60
2023-01-22T15:40:10.118Z,1.70
2023-01-22T15:42:38.514Z,1.60
2023-01-22T15:45:10.201Z,1.60
2023-01-22T15:47:38.368Z,1.60
2023-01-22T15:50:08.024Z,1.60
2023-01-22T15:52:36.164Z,1.60
2023-01-22T15:55:06.533Z,1.50
2023-01-22T15:57:36.503Z,1.70
2023-01-22T16:00:06.482Z,1.70
2023-01-22T16:02:36.230Z,1.60
2023-01-22T16:05:04.708Z,1.60
2023-01-22T16:07:33.170Z,1.60
2023-01-22T16:10:01.364Z,1.60
2023-01-22T16:12:30.211Z,1.60
2023-01-22T16:14:58.352Z,1.60
2023-01-22T16:17:26.538Z,1.60
2023-01-22T16:19:56.084Z,1.50
2023-01-22T16:22:25.100Z,1.50
2023-01-22T16:24:53.282Z,1.50
2023-01-22T16:27:24.476Z,1.50
2023-01-22T16:29:52.865Z,1.40
2023-01-22T16:32:20.977Z,1.40
2023-01-22T16:34:57.376Z,1.40
2023-01-22T16:37:25.559Z,1.40
2023-01-22T16:39:53.713Z,1.50
2023-01-22T16:42:21.964Z,1.60
2023-01-22T16:44:50.130Z,1.40
2023-01-22T16:47:18.288Z,1.50
2023-01-22T16:49:46.479Z,1.60
2023-01-22T16:52:22.390Z,1.50
2023-01-22T16:54:51.639Z,1.40
2023-01-22T16:57:20.348Z,1.40
2023-01-22T16:59:48.763Z,1.40
2023-01-22T17:02:19.002Z,1.50
2023-01-22T17:04:47.617Z,1.50
2023-01-22T17:07:32.409Z,1.50
2023-01-22T17:10:01.515Z,1.50
2023-01-22T17:12:29.822Z,1.60
2023-01-22T17:14:58.041Z,1.50
2023-01-22T17:17:26.371Z,1.50
2023-01-22T17:19:54.496Z,1.50
2023-01-22T17:22:24.188Z,1.50
2023-01-22T17:24:52.644Z,1.50
2023-01-22T17:27:21.498Z,1.40
2023-01-22T17:29:49.914Z,1.50
2023-01-22T17:32:18.137Z,1.40
2023-01-22T17:34:46.366Z,1.40
2023-01-22T17:37:14.587Z,1.50
2023-01-22T17:39:50.428Z,1.50
2023-01-22T17:42:20.971Z,1.60
2023-01-22T17:44:49.237Z,1.50
2023-01-22T17:47:17.434Z,1.50
2023-01-22T17:49:47.448Z,1.50
2023-01-22T17:52:17.729Z,1.40
2023-01-22T17:54:47.496Z,1.40
2023-01-22T17:57:15.775Z,1.40
2023-01-22T17:59:44.002Z,1.50
2023-01-22T18:02:12.400Z,1.50
2023-01-22T18:04:40.605Z,1.40
2023-01-22T18:07:09.096Z,1.50
2023-01-22T18:09:37.333Z,1.50
2023-01-22T18:12:07.585Z,1.50
2023-01-22T18:14:35.871Z,1.50
2023-01-22T18:17:04.277Z,1.50
2023-01-22T18:19:32.587Z,1.40
2023-01-22T18:22:00.756Z,1.50
2023-01-22T18:24:31.156Z,1.50
2023-01-22T18:26:59.937Z,1.50
2023-01-22T18:29:29.421Z,1.70
2023-01-22T18:31:57.621Z,1.50
2023-01-22T18:34:25.968Z,1.50
2023-01-22T18:36:54.173Z,1.50
2023-01-22T18:39:22.303Z,1.60
2023-01-22T18:41:50.648Z,1.60
2023-01-22T18:44:19.848Z,1.60
2023-01-22T18:46:52.213Z,1.60
2023-01-22T18:49:20.549Z,1.50
2023-01-22T18:51:49.239Z,1.60
2023-01-22T18:54:18.545Z,1.50
2023-01-22T18:56:47.923Z,1.50
2023-01-22T18:59:17.383Z,1.60
2023-01-22T19:01:51.171Z,1.60
2023-01-22T19:04:22.330Z,1.50
2023-01-22T19:06:56.884Z,1.50
2023-01-22T19:09:26.874Z,1.50
2023-01-22T19:11:55.986Z,1.50
2023-01-22T19:14:24.255Z,1.40
2023-01-22T19:16:54.276Z,1.40
2023-01-22T19:19:24.265Z,1.60
2023-01-22T19:21:55.743Z,1.60
2023-01-22T19:24:27.772Z,1.40
2023-01-22T19:26:57.503Z,1.40
2023-01-22T19:29:27.596Z,1.40
2023-01-22T19:31:57.064Z,1.50
2023-01-22T19:34:30.214Z,1.50
2023-01-22T19:37:02.308Z,1.50
2023-01-22T19:39:31.338Z,1.60
2023-01-22T19:42:02.201Z,1.60
2023-01-22T19:44:30.814Z,1.60
2023-01-22T19:46:59.364Z,1.70
2023-01-22T19:49:29.031Z,1.60
2023-01-22T19:51:57.609Z,1.60
2023-01-22T19:54:29.102Z,1.50
2023-01-22T19:56:57.665Z,1.50
2023-01-22T19:59:26.001Z,1.50
2023-01-22T20:01:54.404Z,1.60
2023-01-22T20:04:25.463Z,1.60
2023-01-22T20:07:02.146Z,1.60
2023-01-22T20:09:32.235Z,1.60
2023-01-22T20:12:01.420Z,1.50
2023-01-22T20:14:32.772Z,1.60
2023-01-22T20:17:03.569Z,1.60
2023-01-22T20:19:38.168Z,1.60
2023-01-22T20:22:10.642Z,1.70
2023-01-22T20:24:40.427Z,1.70
2023-01-22T20:27:10.564Z,1.60
2023-01-22T20:29:40.641Z,1.60
2023-01-22T20:32:09.073Z,1.70
2023-01-22T20:34:37.583Z,1.60
2023-01-22T20:37:07.192Z,1.60
2023-01-22T20:39:35.397Z,1.50
2023-01-22T20:42:03.660Z,1.60
2023-01-22T20:44:34.107Z,1.60
2023-01-22T20:47:02.910Z,1.60
2023-01-22T20:49:33.242Z,1.60
2023-01-22T20:52:02.287Z,1.60
2023-01-22T20:54:34.067Z,1.50
2023-01-22T20:57:03.872Z,1.50
2023-01-22T20:59:32.323Z,1.60
2023-01-22T21:02:00.966Z,1.70
2023-01-22T21:04:31.963Z,1.60
2023-01-22T21:07:00.928Z,1.50
2023-01-22T21:09:30.914Z,1.40
2023-01-22T21:12:01.594Z,1.50
2023-01-22T21:14:30.962Z,1.30
2023-01-22T21:16:59.273Z,1.30
2023-01-22T21:19:29.193Z,1.50
2023-01-22T21:22:00.541Z,1.30
2023-01-22T21:24:29.273Z,1.30
2023-01-22T21:26:57.496Z,1.40
2023-01-22T21:29:27.175Z,1.40
2023-01-22T21:31:55.849Z,1.40
2023-01-22T21:34:26.561Z,1.40
2023-01-22T21:37:01.137Z,1.30
2023-01-22T21:39:31.254Z,1.40
2023-01-22T21:42:13.587Z,1.40
2023-01-22T21:45:01.057Z,1.50
2023-01-22T21:47:30.264Z,1.40
2023-01-22T21:49:58.915Z,1.40
2023-01-22T21:52:27.371Z,1.50
2023-01-22T21:54:56.815Z,1.60
2023-01-22T21:57:25.217Z,1.60
2023-01-22T21:59:54.741Z,1.50
2023-01-22T22:02:24.152Z,1.60
2023-01-22T22:04:54.215Z,1.50
2023-01-22T22:07:22.467Z,1.50
2023-01-22T22:09:50.751Z,1.50
2023-01-22T22:12:19.213Z,1.50
2023-01-22T22:14:47.426Z,1.70
2023-01-22T22:17:18.491Z,1.60
2023-01-22T22:19:46.768Z,1.60
2023-01-22T22:22:16.616Z,1.60
2023-01-22T22:24:47.075Z,1.70
2023-01-22T22:27:15.397Z,1.60
2023-01-22T22:29:43.657Z,1.60
2023-01-22T22:32:11.806Z,1.60
2023-01-22T22:34:41.709Z,1.50
2023-01-22T22:37:10.068Z,1.60
2023-01-22T22:39:38.962Z,1.60
2023-01-22T22:42:07.311Z,1.50
2023-01-22T22:44:37.394Z,1.70
2023-01-22T22:47:06.211Z,1.60
2023-01-22T22:49:34.542Z,1.40
2023-01-22T22:52:04.252Z,1.40
2023-01-22T22:54:32.460Z,1.50
2023-01-22T22:57:00.671Z,1.60
2023-01-22T22:59:28.965Z,1.50
2023-01-22T23:01:57.201Z,1.50
2023-01-22T23:04:25.654Z,1.50
2023-01-22T23:06:54.351Z,1.60
2023-01-22T23:09:24.035Z,1.60
2023-01-22T23:11:56.169Z,1.70
2023-01-22T23:14:24.591Z,1.70
2023-01-22T23:16:55.854Z,1.70
2023-01-22T23:19:27.141Z,1.70
2023-01-22T23:21:58.997Z,1.70
2023-01-22T23:24:28.910Z,1.60
2023-01-22T23:26:59.998Z,1.60
2023-01-22T23:29:30.812Z,1.60
2023-01-22T23:31:59.062Z,1.60
2023-01-22T23:34:27.212Z,1.50
2023-01-22T23:36:55.450Z,1.50
2023-01-22T23:39:23.818Z,1.60
2023-01-22T23:41:53.416Z,1.70
2023-01-22T23:44:21.629Z,1.70
2023-01-22T23:46:49.892Z,1.70
2023-01-22T23:49:18.114Z,1.60
2023-01-22T23:51:46.325Z,1.60
2023-01-22T23:54:14.578Z,1.70
2023-01-22T23:56:42.806Z,1.70
2023-01-22T23:59:13.479Z,1.60
